Time;durP1;ratioP1;P1;durP2;ratioP2;P2;SDS_P1;SDS_P2;PMS_P1;PMS_P2;Temp;Humidity;BMP_temperature;BMP_pressure;BME280_temperature;BME280_humidity;BME280_pressure;Samples;Min_cycle;Max_cycle;Signal;HPM_P1;HPM_P2
2022/07/10 00:02:16;;;;;;;14.95;1.95;;;;;;;;;;5060445;28;20404;-78
2022/07/10 00:04:42;;;;;;;13.70;1.63;;;;;;;;;;5060284;28;20166;-78
2022/07/10 00:07:08;;;;;;;13.23;1.80;;;;;;;;;;5060972;28;20602;-78
2022/07/10 00:09:34;;;;;;;11.57;1.90;;;;;;;;;;5058852;28;20021;-79
2022/07/10 00:12:00;;;;;;;12.55;1.83;;;;;;;;;;5058862;28;20033;-78
2022/07/10 00:14:26;;;;;;;9.68;1.50;;;;;;;;;;5060757;28;20039;-78
2022/07/10 00:16:52;;;;;;;15.68;1.92;;;;;;;;;;5062734;28;20025;-77
2022/07/10 00:19:18;;;;;;;15.10;2.20;;;;;;;;;;5065113;28;20032;-77
2022/07/10 00:21:44;;;;;;;14.35;2.00;;;;;;;;;;5061080;28;20050;-78
2022/07/10 00:24:10;;;;;;;13.43;1.90;;;;;;;;;;5063812;28;20386;-76
2022/07/10 00:26:36;;;;;;;12.07;1.55;;;;;;;;;;5062874;28;20135;-76
2022/07/10 00:29:02;;;;;;;12.07;1.50;;;;;;;;;;5064383;28;20043;-77
2022/07/10 00:31:28;;;;;;;9.82;1.90;;;;;;;;;;5072785;28;20080;-76
2022/07/10 00:33:54;;;;;;;10.27;1.80;;;;;;;;;;5076322;28;20024;-75
2022/07/10 00:36:20;;;;;;;14.10;1.83;;;;;;;;;;5076137;28;20044;-78
2022/07/10 00:38:46;;;;;;;11.45;1.92;;;;;;;;;;5073966;28;20012;-76
2022/07/10 00:41:12;;;;;;;12.52;1.80;;;;;;;;;;5072636;28;20059;-78
2022/07/10 00:43:57;;;;;;;10.98;1.90;;;;;;;;;;5072839;28;20026;-79
2022/07/10 00:46:24;;;;;;;13.00;1.80;;;;;;;;;;5062789;28;20025;-78
2022/07/10 00:48:50;;;;;;;12.93;2.55;;;;;;;;;;5057881;28;20070;-78
2022/07/10 00:51:17;;;;;;;14.43;2.28;;;;;;;;;;5058662;28;20024;-77
2022/07/10 00:53:44;;;;;;;10.10;1.80;;;;;;;;;;5057471;28;20024;-77
2022/07/10 00:56:11;;;;;;;11.95;1.85;;;;;;;;;;5055581;28;20021;-79
2022/07/10 00:58:39;;;;;;;14.35;1.80;;;;;;;;;;5059264;28;20108;-78
2022/07/10 01:01:05;;;;;;;16.92;1.83;;;;;;;;;;5059543;28;20016;-77
2022/07/10 01:03:31;;;;;;;9.25;1.55;;;;;;;;;;5060527;28;20029;-77
2022/07/10 01:05:58;;;;;;;6.55;1.48;;;;;;;;;;5060191;28;20109;-77
2022/07/10 01:08:24;;;;;;;11.70;1.60;;;;;;;;;;5073734;28;20009;-77
2022/07/10 01:10:50;;;;;;;10.57;1.92;;;;;;;;;;5072433;28;20037;-75
2022/07/10 01:13:16;;;;;;;17.48;1.70;;;;;;;;;;5057639;28;20029;-77
2022/07/10 01:15:42;;;;;;;17.35;2.13;;;;;;;;;;5058314;28;20021;-77
2022/07/10 01:18:09;;;;;;;8.13;1.40;;;;;;;;;;5058969;28;20021;-77
2022/07/10 01:20:35;;;;;;;10.57;1.58;;;;;;;;;;5072124;28;20021;-78
2022/07/10 01:23:01;;;;;;;11.40;2.17;;;;;;;;;;5072053;28;20117;-77
2022/07/10 01:25:27;;;;;;;20.23;1.83;;;;;;;;;;5064366;28;20025;-79
2022/07/10 01:27:54;;;;;;;11.88;1.70;;;;;;;;;;5068075;28;20029;-77
2022/07/10 01:30:20;;;;;;;7.10;1.40;;;;;;;;;;5069020;28;20048;-77
2022/07/10 01:32:46;;;;;;;9.38;1.88;;;;;;;;;;5070336;28;20045;-77
2022/07/10 01:35:13;;;;;;;13.98;1.90;;;;;;;;;;5063662;28;20021;-79
2022/07/10 01:37:39;;;;;;;11.27;2.13;;;;;;;;;;5061195;28;20024;-76
2022/07/10 01:40:05;;;;;;;15.20;2.28;;;;;;;;;;5059858;28;20033;-79
2022/07/10 01:42:31;;;;;;;10.88;2.00;;;;;;;;;;5066731;28;20085;-76
2022/07/10 01:44:57;;;;;;;11.80;1.88;;;;;;;;;;5068778;28;20021;-76
2022/07/10 01:47:27;;;;;;;12.00;1.88;;;;;;;;;;5072591;28;20025;-77
2022/07/10 01:49:54;;;;;;;17.48;2.50;;;;;;;;;;5066542;28;20123;-77
2022/07/10 01:52:20;;;;;;;11.80;1.75;;;;;;;;;;5061972;28;20021;-77
2022/07/10 01:54:46;;;;;;;9.77;1.73;;;;;;;;;;5056224;28;20458;-78
2022/07/10 01:57:13;;;;;;;15.13;1.77;;;;;;;;;;5078851;22;20037;-76
2022/07/10 01:59:39;;;;;;;12.45;1.98;;;;;;;;;;5042213;28;20040;-77
2022/07/10 02:02:05;;;;;;;9.55;1.73;;;;;;;;;;5059594;28;20029;-77
2022/07/10 02:04:43;;;;;;;16.20;2.58;;;;;;;;;;5062998;28;20070;-78
2022/07/10 02:07:13;;;;;;;18.92;2.33;;;;;;;;;;5068336;28;20033;-76
2022/07/10 02:09:39;;;;;;;11.30;1.92;;;;;;;;;;5080500;28;20075;-75
2022/07/10 02:12:09;;;;;;;11.15;2.00;;;;;;;;;;5074457;28;20021;-74
2022/07/10 02:14:35;;;;;;;11.32;1.67;;;;;;;;;;5078401;28;20021;-74
2022/07/10 02:17:01;;;;;;;11.93;1.80;;;;;;;;;;5079837;28;20047;-76
2022/07/10 02:19:27;;;;;;;10.82;1.83;;;;;;;;;;5078539;28;20036;-76
2022/07/10 02:21:53;;;;;;;13.23;2.15;;;;;;;;;;5070797;28;20082;-76
2022/07/10 02:24:19;;;;;;;18.25;2.22;;;;;;;;;;5067251;28;20039;-77
2022/07/10 02:26:45;;;;;;;17.25;2.17;;;;;;;;;;5067224;28;20080;-76
2022/07/10 02:29:11;;;;;;;22.38;2.63;;;;;;;;;;5070389;28;20029;-76
2022/07/10 02:31:40;;;;;;;18.60;2.38;;;;;;;;;;5065959;28;20029;-77
2022/07/10 02:34:13;;;;;;;11.65;1.77;;;;;;;;;;5061806;28;20029;-78
2022/07/10 02:36:39;;;;;;;15.75;2.60;;;;;;;;;;5062616;28;20017;-77
2022/07/10 02:39:07;;;;;;;16.80;2.78;;;;;;;;;;5060692;28;20052;-76
2022/07/10 02:41:32;;;;;;;20.27;2.72;;;;;;;;;;5057540;28;20033;-76
2022/07/10 02:44:00;;;;;;;22.60;3.67;;;;;;;;;;5065908;28;20031;-78
2022/07/10 02:46:26;;;;;;;25.40;3.10;;;;;;;;;;5069178;28;20096;-78
2022/07/10 02:48:52;;;;;;;14.05;2.40;;;;;;;;;;5063853;28;20028;-77
2022/07/10 02:51:18;;;;;;;21.75;2.83;;;;;;;;;;5064950;28;20071;-79
2022/07/10 02:53:44;;;;;;;15.25;2.72;;;;;;;;;;5063824;28;20028;-78
2022/07/10 02:56:10;;;;;;;17.63;2.70;;;;;;;;;;5066141;28;20036;-77
2022/07/10 02:58:38;;;;;;;21.38;3.35;;;;;;;;;;5072416;28;20033;-76
2022/07/10 03:01:04;;;;;;;11.75;2.20;;;;;;;;;;5072279;28;20033;-78
2022/07/10 03:03:30;;;;;;;15.50;3.15;;;;;;;;;;5069918;28;20033;-77
2022/07/10 03:05:56;;;;;;;20.10;2.83;;;;;;;;;;5065722;28;20033;-77
2022/07/10 03:08:22;;;;;;;22.98;3.35;;;;;;;;;;5064890;28;20021;-76
2022/07/10 03:10:48;;;;;;;17.17;3.13;;;;;;;;;;5065495;28;20317;-77
2022/07/10 03:13:13;;;;;;;19.45;3.28;;;;;;;;;;5057497;28;20054;-77
2022/07/10 03:15:40;;;;;;;18.08;3.03;;;;;;;;;;5055455;28;20547;-77
2022/07/10 03:18:06;;;;;;;20.00;3.25;;;;;;;;;;5056527;28;20470;-77
2022/07/10 03:20:32;;;;;;;19.27;2.80;;;;;;;;;;5058632;28;20036;-78
2022/07/10 03:22:58;;;;;;;21.58;3.30;;;;;;;;;;5060373;28;20028;-77
2022/07/10 03:25:24;;;;;;;17.08;2.90;;;;;;;;;;5061724;28;20470;-78
2022/07/10 03:27:50;;;;;;;17.27;2.80;;;;;;;;;;5055679;28;20406;-76
2022/07/10 03:30:16;;;;;;;26.10;3.80;;;;;;;;;;5056523;28;20454;-77
2022/07/10 03:32:41;;;;;;;21.02;3.08;;;;;;;;;;5056920;28;20029;-79
2022/07/10 03:35:07;;;;;;;17.88;2.78;;;;;;;;;;5055882;28;20021;-76
2022/07/10 03:37:33;;;;;;;27.63;3.65;;;;;;;;;;5058706;28;20017;-77
2022/07/10 03:39:59;;;;;;;20.92;3.40;;;;;;;;;;5058784;28;20477;-77
2022/07/10 03:42:25;;;;;;;30.63;3.83;;;;;;;;;;5060616;28;20029;-76
2022/07/10 03:44:51;;;;;;;21.85;3.45;;;;;;;;;;5061815;28;20025;-76
2022/07/10 03:47:17;;;;;;;16.88;2.92;;;;;;;;;;5062783;28;20056;-76
2022/07/10 03:49:43;;;;;;;21.00;3.42;;;;;;;;;;5063156;28;20468;-76
2022/07/10 03:52:09;;;;;;;23.77;3.53;;;;;;;;;;5059992;28;20037;-76
2022/07/10 03:54:35;;;;;;;25.08;3.58;;;;;;;;;;5060471;28;20020;-74
2022/07/10 03:59:46;;;;;;;29.27;3.28;;;;;;;;;;5062142;28;20031;-73
2022/07/10 04:02:12;;;;;;;22.10;3.45;;;;;;;;;;5061740;28;20033;-76
2022/07/10 04:04:38;;;;;;;23.45;3.17;;;;;;;;;;5063568;28;20029;-77
2022/07/10 04:07:05;;;;;;;24.15;3.78;;;;;;;;;;5061925;28;20045;-76
2022/07/10 04:09:31;;;;;;;26.05;4.25;;;;;;;;;;5071701;28;20020;-77
2022/07/10 04:11:57;;;;;;;34.50;4.88;;;;;;;;;;5071231;28;20021;-77
2022/07/10 04:14:23;;;;;;;23.52;3.60;;;;;;;;;;5071155;28;20032;-77
2022/07/10 04:16:49;;;;;;;24.13;3.72;;;;;;;;;;5066337;28;20048;-77
2022/07/10 04:19:15;;;;;;;22.60;3.50;;;;;;;;;;5070503;28;20025;-77
2022/07/10 04:21:41;;;;;;;30.58;4.30;;;;;;;;;;5067023;28;20036;-77
2022/07/10 04:24:07;;;;;;;23.70;3.67;;;;;;;;;;5064489;28;20044;-77
2022/07/10 04:26:33;;;;;;;28.02;3.85;;;;;;;;;;5059042;28;20025;-77
2022/07/10 04:28:59;;;;;;;24.20;3.83;;;;;;;;;;5059073;28;20082;-77
2022/07/10 04:31:25;;;;;;;28.42;4.55;;;;;;;;;;5059013;28;20108;-77
2022/07/10 04:33:51;;;;;;;25.35;4.32;;;;;;;;;;5058276;28;20051;-77
2022/07/10 04:36:18;;;;;;;24.20;3.60;;;;;;;;;;5053004;28;20032;-76
2022/07/10 04:38:44;;;;;;;25.10;4.28;;;;;;;;;;5053591;28;20017;-78
2022/07/10 04:41:10;;;;;;;27.27;4.40;;;;;;;;;;5053752;28;20044;-76
2022/07/10 04:43:36;;;;;;;27.30;4.90;;;;;;;;;;5054311;28;20021;-76
2022/07/10 04:46:02;;;;;;;29.42;3.95;;;;;;;;;;5063134;28;20031;-76
2022/07/10 04:48:28;;;;;;;26.83;4.35;;;;;;;;;;5078009;28;20012;-75
2022/07/10 04:50:53;;;;;;;27.98;4.45;;;;;;;;;;5077098;28;20025;-74
2022/07/10 04:53:19;;;;;;;27.02;4.00;;;;;;;;;;5077372;28;20021;-75
2022/07/10 04:55:46;;;;;;;29.25;3.65;;;;;;;;;;5075743;28;20041;-75
2022/07/10 04:58:12;;;;;;;28.73;4.22;;;;;;;;;;5075964;28;20029;-74
2022/07/10 05:00:38;;;;;;;23.83;3.58;;;;;;;;;;5058666;28;20021;-76
2022/07/10 05:03:04;;;;;;;28.08;4.45;;;;;;;;;;5052904;28;20084;-76
2022/07/10 05:05:29;;;;;;;25.60;3.70;;;;;;;;;;5051878;28;20040;-74
2022/07/10 05:07:55;;;;;;;28.08;3.83;;;;;;;;;;5057416;28;20032;-79
2022/07/10 05:10:22;;;;;;;34.03;4.32;;;;;;;;;;5053126;28;20057;-76
2022/07/10 05:12:48;;;;;;;29.73;4.50;;;;;;;;;;5056964;28;20052;-76
2022/07/10 05:15:14;;;;;;;37.42;4.35;;;;;;;;;;5051087;28;20086;-74
2022/07/10 05:17:40;;;;;;;22.52;4.10;;;;;;;;;;5052515;28;20100;-76
2022/07/10 05:20:06;;;;;;;28.70;4.45;;;;;;;;;;5051353;28;20025;-75
2022/07/10 05:22:32;;;;;;;24.98;4.20;;;;;;;;;;5050976;28;20021;-75
2022/07/10 05:24:58;;;;;;;23.05;4.03;;;;;;;;;;5051254;28;20017;-76
2022/07/10 05:27:25;;;;;;;34.80;4.60;;;;;;;;;;5049760;28;20021;-77
2022/07/10 05:29:51;;;;;;;30.98;4.32;;;;;;;;;;5051713;28;20381;-75
2022/07/10 05:32:17;;;;;;;28.30;3.88;;;;;;;;;;5053497;28;20021;-76
2022/07/10 05:34:43;;;;;;;32.25;4.40;;;;;;;;;;5060157;28;20029;-76
2022/07/10 05:37:09;;;;;;;24.15;3.58;;;;;;;;;;5060189;28;20081;-76
2022/07/10 05:39:35;;;;;;;29.98;4.85;;;;;;;;;;5059771;28;20029;-75
2022/07/10 05:42:01;;;;;;;30.65;4.43;;;;;;;;;;5054237;28;20036;-76
2022/07/10 05:44:27;;;;;;;21.45;4.05;;;;;;;;;;5056650;28;20469;-76
2022/07/10 05:46:53;;;;;;;27.95;3.42;;;;;;;;;;5054468;28;20036;-74
2022/07/10 05:49:19;;;;;;;30.40;4.43;;;;;;;;;;5057872;28;20469;-75
2022/07/10 05:51:44;;;;;;;33.10;3.83;;;;;;;;;;5057033;28;20036;-80
2022/07/10 05:54:10;;;;;;;28.60;4.57;;;;;;;;;;5058125;28;20025;-76
2022/07/10 05:56:36;;;;;;;32.60;4.07;;;;;;;;;;5059605;28;20025;-79
2022/07/10 05:59:02;;;;;;;30.35;5.07;;;;;;;;;;5062431;28;20095;-79
2022/07/10 06:01:28;;;;;;;26.80;4.15;;;;;;;;;;5063244;28;20028;-78
2022/07/10 06:03:54;;;;;;;21.73;4.28;;;;;;;;;;5064917;28;20032;-77
2022/07/10 06:06:20;;;;;;;28.42;4.18;;;;;;;;;;5074689;28;20029;-77
2022/07/10 06:08:46;;;;;;;29.88;3.63;;;;;;;;;;5071870;28;20025;-77
2022/07/10 06:11:12;;;;;;;33.70;3.83;;;;;;;;;;5069533;28;20049;-77
2022/07/10 06:13:39;;;;;;;22.25;3.92;;;;;;;;;;5061243;28;20021;-77
2022/07/10 06:16:05;;;;;;;23.10;3.78;;;;;;;;;;5058301;28;20029;-75
2022/07/10 06:18:31;;;;;;;24.33;3.58;;;;;;;;;;5056891;28;20049;-78
2022/07/10 06:20:57;;;;;;;25.83;3.97;;;;;;;;;;5059222;28;20036;-76
2022/07/10 06:23:24;;;;;;;32.38;3.80;;;;;;;;;;5058506;28;20056;-77
2022/07/10 06:25:49;;;;;;;33.55;4.47;;;;;;;;;;5057758;28;20032;-77
2022/07/10 06:28:19;;;;;;;32.05;3.92;;;;;;;;;;5058671;28;20036;-77
2022/07/10 06:30:46;;;;;;;29.77;4.47;;;;;;;;;;5055516;28;20287;-77
2022/07/10 06:33:12;;;;;;;20.88;3.58;;;;;;;;;;5055058;28;20083;-75
2022/07/10 06:35:38;;;;;;;36.15;4.53;;;;;;;;;;5054578;28;20025;-75
2022/07/10 06:38:04;;;;;;;27.88;4.43;;;;;;;;;;5054819;28;20092;-75
2022/07/10 06:40:32;;;;;;;27.90;4.15;;;;;;;;;;5054800;28;20025;-77
2022/07/10 06:42:58;;;;;;;27.50;4.10;;;;;;;;;;5055248;28;20039;-75
2022/07/10 06:45:24;;;;;;;30.42;4.13;;;;;;;;;;5053339;28;20025;-75
2022/07/10 06:47:56;;;;;;;19.33;3.22;;;;;;;;;;5055006;28;20025;-76
2022/07/10 06:50:22;;;;;;;27.60;4.03;;;;;;;;;;5054797;28;20108;-75
2022/07/10 06:52:48;;;;;;;27.45;4.88;;;;;;;;;;5054135;28;20090;-75
2022/07/10 06:55:15;;;;;;;19.45;3.40;;;;;;;;;;5054247;28;20074;-75
2022/07/10 06:57:40;;;;;;;27.08;3.78;;;;;;;;;;5054802;28;20074;-76
2022/07/10 07:00:09;;;;;;;27.27;4.32;;;;;;;;;;5055065;28;20029;-75
2022/07/10 07:02:35;;;;;;;25.02;3.90;;;;;;;;;;5055975;28;20017;-77
2022/07/10 07:05:01;;;;;;;28.27;4.40;;;;;;;;;;5055704;28;20025;-77
2022/07/10 07:07:27;;;;;;;27.92;3.38;;;;;;;;;;5053615;28;20060;-76
2022/07/10 07:09:53;;;;;;;22.77;4.00;;;;;;;;;;5055603;28;20378;-77
2022/07/10 07:12:19;;;;;;;23.20;3.58;;;;;;;;;;5055439;28;20053;-76
2022/07/10 07:14:45;;;;;;;26.75;4.10;;;;;;;;;;5056382;28;20108;-75
2022/07/10 07:17:14;;;;;;;28.08;4.13;;;;;;;;;;5055122;28;20050;-76
2022/07/10 07:25:29;;;;;;;31.38;3.92;;;;;;;;;;5010880;28;20062;-74
2022/07/10 07:27:55;;;;;;;23.73;3.83;;;;;;;;;;5051542;28;20073;-75
2022/07/10 07:30:21;;;;;;;23.75;3.63;;;;;;;;;;5078843;28;20029;-75
2022/07/10 07:32:47;;;;;;;23.85;3.60;;;;;;;;;;5078221;28;20055;-75
2022/07/10 07:35:14;;;;;;;24.77;3.40;;;;;;;;;;5071893;28;20033;-76
2022/07/10 07:37:40;;;;;;;20.00;3.33;;;;;;;;;;5067652;28;20025;-77
2022/07/10 07:40:07;;;;;;;31.17;4.22;;;;;;;;;;5066604;28;20497;-76
2022/07/10 07:42:33;;;;;;;25.35;3.28;;;;;;;;;;5064982;28;20035;-76
2022/07/10 07:44:59;;;;;;;17.60;2.80;;;;;;;;;;5055521;28;20148;-76
2022/07/10 07:47:25;;;;;;;25.02;3.30;;;;;;;;;;5053858;28;20025;-75
2022/07/10 07:49:51;;;;;;;19.73;3.78;;;;;;;;;;5054318;28;20039;-75
2022/07/10 07:52:17;;;;;;;18.88;3.53;;;;;;;;;;5053776;28;20390;-76
2022/07/10 07:54:43;;;;;;;32.22;3.95;;;;;;;;;;5054054;28;20363;-77
2022/07/10 07:57:09;;;;;;;20.90;2.88;;;;;;;;;;5053581;28;20079;-76
2022/07/10 07:59:35;;;;;;;23.20;3.35;;;;;;;;;;5054717;28;20382;-76
2022/07/10 08:02:01;;;;;;;16.02;2.90;;;;;;;;;;5053714;28;20036;-75
2022/07/10 08:04:27;;;;;;;14.57;3.13;;;;;;;;;;5053535;28;20029;-78
2022/07/10 08:06:53;;;;;;;23.92;3.25;;;;;;;;;;5053361;28;20031;-76
2022/07/10 08:09:20;;;;;;;29.30;3.45;;;;;;;;;;5053575;28;20600;-75
2022/07/10 08:11:46;;;;;;;24.88;3.70;;;;;;;;;;5053223;28;20029;-75
2022/07/10 08:14:12;;;;;;;20.13;3.20;;;;;;;;;;5051630;28;20021;-75
2022/07/10 08:16:38;;;;;;;21.75;3.42;;;;;;;;;;5050572;28;20531;-75
2022/07/10 08:19:04;;;;;;;25.85;3.03;;;;;;;;;;5052238;28;20017;-76
2022/07/10 08:21:30;;;;;;;20.13;3.15;;;;;;;;;;5056756;28;20036;-75
2022/07/10 08:23:56;;;;;;;21.10;2.90;;;;;;;;;;5059606;28;20021;-74
2022/07/10 08:26:22;;;;;;;29.13;4.00;;;;;;;;;;5052452;28;20482;-75
2022/07/10 08:28:48;;;;;;;27.48;3.35;;;;;;;;;;5051987;28;20025;-75
2022/07/10 08:31:14;;;;;;;17.85;3.40;;;;;;;;;;5051731;28;20029;-76
2022/07/10 08:33:40;;;;;;;23.77;3.22;;;;;;;;;;5052582;28;20029;-77
2022/07/10 08:36:06;;;;;;;19.55;3.00;;;;;;;;;;5052079;28;20036;-74
2022/07/10 08:38:32;;;;;;;25.15;3.80;;;;;;;;;;5051628;28;20036;-76
2022/07/10 08:41:02;;;;;;;27.50;3.40;;;;;;;;;;5051394;28;20558;-73
2022/07/10 08:43:28;;;;;;;23.02;3.35;;;;;;;;;;5051847;28;20396;-75
2022/07/10 08:45:54;;;;;;;17.23;2.88;;;;;;;;;;5051605;28;20103;-76
2022/07/10 08:48:24;;;;;;;17.10;2.75;;;;;;;;;;5050293;28;20066;-74
2022/07/10 08:50:54;;;;;;;16.77;2.50;;;;;;;;;;5052558;28;20039;-73
2022/07/10 08:53:32;;;;;;;20.33;2.60;;;;;;;;;;5052792;28;20021;-75
2022/07/10 08:55:59;;;;;;;23.30;3.22;;;;;;;;;;5052039;28;20021;-76
2022/07/10 08:58:26;;;;;;;17.88;2.63;;;;;;;;;;5052239;28;20082;-76
2022/07/10 09:00:53;;;;;;;27.65;2.80;;;;;;;;;;5052060;28;20172;-76
2022/07/10 09:03:19;;;;;;;12.88;2.53;;;;;;;;;;5053858;28;20525;-76
2022/07/10 09:05:45;;;;;;;18.48;2.63;;;;;;;;;;5051802;28;20085;-76
2022/07/10 09:08:32;;;;;;;21.17;2.80;;;;;;;;;;5051269;28;20404;-76
2022/07/10 09:11:19;;;;;;;18.38;3.00;;;;;;;;;;5051977;28;20028;-76
2022/07/10 09:13:51;;;;;;;15.63;2.60;;;;;;;;;;5051087;28;20021;-74
2022/07/10 09:16:24;;;;;;;19.58;3.22;;;;;;;;;;5050039;28;20717;-75
2022/07/10 09:18:50;;;;;;;18.33;2.58;;;;;;;;;;5049472;28;20032;-75
2022/07/10 09:21:16;;;;;;;15.07;2.78;;;;;;;;;;5051179;28;20526;-75
2022/07/10 09:23:42;;;;;;;25.02;3.78;;;;;;;;;;5051306;28;20130;-76
2022/07/10 09:26:08;;;;;;;23.70;3.28;;;;;;;;;;5050089;28;20025;-75
2022/07/10 09:28:34;;;;;;;16.88;2.45;;;;;;;;;;5051757;28;20021;-76
2022/07/10 09:31:00;;;;;;;15.65;2.63;;;;;;;;;;5050925;28;20079;-76
2022/07/10 09:33:29;;;;;;;24.67;2.97;;;;;;;;;;5051255;28;20383;-77
2022/07/10 09:36:07;;;;;;;20.73;2.58;;;;;;;;;;5050477;28;20464;-77
2022/07/10 09:38:42;;;;;;;16.90;3.10;;;;;;;;;;5052012;28;20481;-76
2022/07/10 09:41:17;;;;;;;17.80;2.92;;;;;;;;;;5052563;28;20051;-76
2022/07/10 09:44:12;;;;;;;15.40;2.63;;;;;;;;;;5066666;28;20029;-77
2022/07/10 09:46:38;;;;;;;21.75;3.03;;;;;;;;;;5044240;28;20040;-76
2022/07/10 09:49:06;;;;;;;15.77;2.53;;;;;;;;;;5058003;28;20088;-77
2022/07/10 09:51:33;;;;;;;20.75;2.95;;;;;;;;;;5056566;28;20085;-77
2022/07/10 09:54:03;;;;;;;16.65;2.83;;;;;;;;;;5052389;28;20064;-76
2022/07/10 09:56:42;;;;;;;13.27;2.42;;;;;;;;;;5051349;28;20258;-76
2022/07/10 09:59:12;;;;;;;18.85;2.75;;;;;;;;;;5053799;28;20067;-77
2022/07/10 10:01:41;;;;;;;20.67;2.42;;;;;;;;;;5064053;28;20040;-76
2022/07/10 10:04:09;;;;;;;13.05;2.60;;;;;;;;;;5074677;28;20033;-75
2022/07/10 10:06:36;;;;;;;16.02;2.60;;;;;;;;;;5075736;28;20040;-76
2022/07/10 10:09:10;;;;;;;15.80;2.47;;;;;;;;;;5075869;28;20032;-76
2022/07/10 10:11:37;;;;;;;9.52;1.80;;;;;;;;;;5064201;28;20033;-77
2022/07/10 10:14:03;;;;;;;9.40;2.17;;;;;;;;;;5070973;28;20013;-76
2022/07/10 10:16:30;;;;;;;14.15;1.90;;;;;;;;;;5052175;28;20136;-76
2022/07/10 10:21:41;;;;;;;15.07;2.63;;;;;;;;;;5051347;28;20494;-74
2022/07/10 10:24:07;;;;;;;13.02;2.78;;;;;;;;;;5050924;28;20057;-76
2022/07/10 10:26:33;;;;;;;19.58;2.50;;;;;;;;;;5050636;28;20100;-75
2022/07/10 10:29:00;;;;;;;10.15;2.17;;;;;;;;;;5053313;28;20040;-76
2022/07/10 10:31:27;;;;;;;12.15;2.80;;;;;;;;;;5054439;28;20116;-77
2022/07/10 10:33:57;;;;;;;16.27;2.10;;;;;;;;;;5054109;28;20021;-76
2022/07/10 10:36:41;;;;;;;15.90;2.28;;;;;;;;;;5053453;28;20050;-76
2022/07/10 10:39:07;;;;;;;;;;;;;;;;;;5054872;28;20032;-78
2022/07/10 10:41:41;;;;;;;12.95;2.42;;;;;;;;;;5054722;28;20480;-76
2022/07/10 10:44:07;;;;;;;8.18;1.83;;;;;;;;;;5054404;28;20021;-77
2022/07/10 10:46:34;;;;;;;11.70;2.42;;;;;;;;;;5055037;28;20025;-77
2022/07/10 10:49:06;;;;;;;14.32;2.13;;;;;;;;;;5053934;28;20100;-76
2022/07/10 10:52:07;;;;;;;12.90;2.88;;;;;;;;;;5053749;28;20021;-76
2022/07/10 10:54:51;;;;;;;17.75;3.72;;;;;;;;;;5022935;28;20036;-76
2022/07/10 10:57:18;;;;;;;14.80;3.00;;;;;;;;;;5053816;28;20027;-76
2022/07/10 10:59:45;;;;;;;11.90;2.03;;;;;;;;;;5053700;28;20063;-75
2022/07/10 11:02:40;;;;;;;12.57;2.75;;;;;;;;;;5053635;28;20488;-76
2022/07/10 11:05:13;;;;;;;15.18;2.08;;;;;;;;;;5047553;28;20064;-76
2022/07/10 11:07:55;;;;;;;11.23;2.20;;;;;;;;;;5052742;28;20037;-76
2022/07/10 11:10:37;;;;;;;13.30;3.10;;;;;;;;;;5053412;28;20032;-75
2022/07/10 11:13:12;;;;;;;18.25;2.88;;;;;;;;;;5053171;28;20021;-75
2022/07/10 11:15:38;;;;;;;12.95;2.53;;;;;;;;;;5050841;28;20025;-76
2022/07/10 11:18:07;;;;;;;13.82;2.72;;;;;;;;;;5053507;28;20650;-75
2022/07/10 11:20:38;;;;;;;18.70;2.30;;;;;;;;;;5053787;28;20029;-76
2022/07/10 11:23:13;;;;;;;16.30;2.20;;;;;;;;;;5050853;28;20051;-76
2022/07/10 11:25:44;;;;;;;12.48;2.17;;;;;;;;;;5050641;28;20037;-76
2022/07/10 11:28:18;;;;;;;13.48;2.40;;;;;;;;;;5050996;28;20390;-75
2022/07/10 11:30:45;;;;;;;19.00;2.85;;;;;;;;;;5053857;28;20025;-77
2022/07/10 11:33:11;;;;;;;17.13;2.95;;;;;;;;;;5054681;28;20044;-77
2022/07/10 11:35:39;;;;;;;18.85;2.50;;;;;;;;;;5054769;28;20454;-77
2022/07/10 11:38:05;;;;;;;11.45;2.20;;;;;;;;;;5055489;28;20398;-77
2022/07/10 11:40:31;;;;;;;20.35;2.40;;;;;;;;;;5055625;28;20029;-77
2022/07/10 11:42:59;;;;;;;12.60;2.05;;;;;;;;;;5052709;28;20029;-77
2022/07/10 11:45:29;;;;;;;14.10;2.20;;;;;;;;;;5053747;28;20505;-75
2022/07/10 11:47:56;;;;;;;12.38;1.95;;;;;;;;;;5055474;28;20128;-76
2022/07/10 11:50:22;;;;;;;10.60;2.30;;;;;;;;;;5056284;28;20403;-77
2022/07/10 11:52:49;;;;;;;11.07;2.17;;;;;;;;;;5056715;28;20151;-76
2022/07/10 11:55:17;;;;;;;15.80;2.92;;;;;;;;;;5053347;28;20053;-76
2022/07/10 11:57:48;;;;;;;9.57;2.10;;;;;;;;;;5053058;28;20025;-78
2022/07/10 12:00:30;;;;;;;11.70;2.20;;;;;;;;;;5053693;28;20385;-78
2022/07/10 12:02:56;;;;;;;8.77;2.53;;;;;;;;;;5053193;28;20107;-76
2022/07/10 12:05:32;;;;;;;14.35;2.90;;;;;;;;;;5052837;28;20524;-76
2022/07/10 12:07:58;;;;;;;12.57;2.30;;;;;;;;;;5053493;28;20426;-77
2022/07/10 12:10:28;;;;;;;14.00;3.15;;;;;;;;;;5051577;28;20040;-75
2022/07/10 12:12:54;;;;;;;11.02;2.33;;;;;;;;;;5053538;28;20436;-79
2022/07/10 12:15:37;;;;;;;13.77;3.10;;;;;;;;;;5052798;28;20408;-78
2022/07/10 12:18:04;;;;;;;17.25;2.95;;;;;;;;;;5053916;28;20438;-77
2022/07/10 12:20:30;;;;;;;23.05;3.72;;;;;;;;;;5053824;28;20036;-76
2022/07/10 12:22:56;;;;;;;11.73;2.97;;;;;;;;;;5054432;28;20036;-77
2022/07/10 12:25:22;;;;;;;12.80;2.65;;;;;;;;;;5062467;28;20028;-77
2022/07/10 12:27:48;;;;;;;13.27;2.50;;;;;;;;;;5063028;28;20033;-77
2022/07/10 12:30:14;;;;;;;24.15;3.17;;;;;;;;;;5057627;28;20033;-77
2022/07/10 12:32:40;;;;;;;18.48;3.30;;;;;;;;;;5058507;28;20043;-78
2022/07/10 12:35:14;;;;;;;20.45;2.97;;;;;;;;;;5056241;28;20036;-78
2022/07/10 12:37:48;;;;;;;14.25;2.20;;;;;;;;;;5065334;28;20028;-77
2022/07/10 12:40:30;;;;;;;18.92;2.45;;;;;;;;;;5072569;28;20021;-77
2022/07/10 12:43:06;;;;;;;12.38;2.40;;;;;;;;;;5077019;28;20021;-77
2022/07/10 12:45:32;;;;;;;15.43;2.15;;;;;;;;;;5075370;28;20024;-76
2022/07/10 12:47:58;;;;;;;14.98;2.35;;;;;;;;;;5078213;28;20028;-78
2022/07/10 12:50:27;;;;;;;15.73;2.45;;;;;;;;;;5069362;28;20079;-78
2022/07/10 12:53:11;;;;;;;18.77;2.80;;;;;;;;;;5060691;28;20489;-78
2022/07/10 12:55:40;;;;;;;12.27;2.85;;;;;;;;;;5052871;28;20112;-78
2022/07/10 12:58:08;;;;;;;14.82;2.47;;;;;;;;;;5054327;28;20025;-77
2022/07/10 13:00:35;;;;;;;17.17;2.60;;;;;;;;;;5052913;28;20673;-77
2022/07/10 13:03:03;;;;;;;16.58;2.65;;;;;;;;;;5053061;28;20544;-78
2022/07/10 13:05:30;;;;;;;16.98;2.35;;;;;;;;;;5053587;28;20024;-77
2022/07/10 13:08:16;;;;;;;16.90;2.28;;;;;;;;;;5057470;28;20021;-77
2022/07/10 13:10:43;;;;;;;13.57;2.40;;;;;;;;;;5058077;28;20029;-78
2022/07/10 13:13:09;;;;;;;18.55;2.83;;;;;;;;;;5058119;28;20025;-76
2022/07/10 13:15:46;;;;;;;14.18;2.58;;;;;;;;;;5057015;28;20055;-76
2022/07/10 13:18:17;;;;;;;18.80;2.78;;;;;;;;;;5056933;28;20013;-78
2022/07/10 13:20:43;;;;;;;14.57;2.80;;;;;;;;;;5056422;28;20044;-78
2022/07/10 13:23:09;;;;;;;14.63;2.55;;;;;;;;;;5054704;28;20033;-78
2022/07/10 13:25:35;;;;;;;8.30;2.13;;;;;;;;;;5056016;28;20048;-79
2022/07/10 13:28:01;;;;;;;12.05;2.05;;;;;;;;;;5057193;28;20029;-77
2022/07/10 13:30:27;;;;;;;19.20;2.50;;;;;;;;;;5051614;28;20576;-77
2022/07/10 13:32:53;;;;;;;15.20;2.88;;;;;;;;;;5051610;28;20033;-78
2022/07/10 13:35:19;;;;;;;12.55;2.20;;;;;;;;;;5058585;28;20021;-77
2022/07/10 13:37:46;;;;;;;18.60;2.75;;;;;;;;;;5059938;28;20516;-76
2022/07/10 13:40:12;;;;;;;15.95;2.47;;;;;;;;;;5062130;28;20021;-76
2022/07/10 13:42:38;;;;;;;12.80;2.28;;;;;;;;;;5055605;28;20025;-77
2022/07/10 13:45:05;;;;;;;13.45;2.70;;;;;;;;;;5052450;28;20021;-78
2022/07/10 13:47:31;;;;;;;17.58;2.35;;;;;;;;;;5052865;28;20037;-77
2022/07/10 13:49:57;;;;;;;10.85;1.83;;;;;;;;;;5054284;28;20021;-78
2022/07/10 13:52:23;;;;;;;10.93;2.00;;;;;;;;;;5052875;28;20474;-76
2022/07/10 13:54:49;;;;;;;14.73;2.55;;;;;;;;;;5054837;28;20381;-78
2022/07/10 13:57:15;;;;;;;19.48;2.10;;;;;;;;;;5056649;28;20021;-77
2022/07/10 13:59:41;;;;;;;10.60;1.95;;;;;;;;;;5106913;22;20069;-76
2022/07/10 14:02:07;;;;;;;11.23;1.83;;;;;;;;;;5090355;28;20114;-77
2022/07/10 14:04:32;;;;;;;16.60;2.15;;;;;;;;;;5091667;28;20012;-78
2022/07/10 14:06:58;;;;;;;9.95;2.30;;;;;;;;;;5068145;28;20047;-76
2022/07/10 14:09:26;;;;;;;15.52;2.72;;;;;;;;;;5087764;28;20021;-77
2022/07/10 14:11:51;;;;;;;15.02;2.20;;;;;;;;;;5093582;28;20044;-78
2022/07/10 14:14:17;;;;;;;14.48;2.33;;;;;;;;;;5092571;28;20025;-76
2022/07/10 14:16:43;;;;;;;16.70;2.53;;;;;;;;;;5084198;28;20025;-78
2022/07/10 14:19:10;;;;;;;12.55;2.20;;;;;;;;;;5086722;28;20093;-79
2022/07/10 14:21:38;;;;;;;15.45;2.92;;;;;;;;;;5086674;28;20040;-78
2022/07/10 14:24:04;;;;;;;19.08;3.00;;;;;;;;;;5095678;28;20036;-77
2022/07/10 14:26:31;;;;;;;19.30;2.63;;;;;;;;;;5096296;28;20028;-75
2022/07/10 14:28:57;;;;;;;10.75;2.58;;;;;;;;;;5095368;28;20008;-78
2022/07/10 14:31:23;;;;;;;14.63;2.83;;;;;;;;;;5090206;28;20112;-75
2022/07/10 14:33:49;;;;;;;13.88;3.30;;;;;;;;;;5089886;28;20036;-77
2022/07/10 14:36:15;;;;;;;18.65;3.05;;;;;;;;;;5087213;28;20031;-79
2022/07/10 14:38:41;;;;;;;11.00;2.42;;;;;;;;;;5084888;28;20032;-79
2022/07/10 14:41:07;;;;;;;12.88;2.40;;;;;;;;;;5084521;28;20590;-79
2022/07/10 14:43:33;;;;;;;11.55;2.42;;;;;;;;;;5083226;28;20035;-79
2022/07/10 14:46:03;;;;;;;18.65;3.28;;;;;;;;;;5082566;28;20027;-83